sensor_id;sensor_type;location;lat;lon;timestamp;P1;durP1;ratioP1;P2;durP2;ratioP2
68940;SDS011;55982;51.476;7.552;2022-07-10T00:00:11;6.70;;;1.85;;
68940;SDS011;55982;51.476;7.552;2022-07-10T00:02:39;9.00;;;1.80;;
68940;SDS011;55982;51.476;7.552;2022-07-10T00:05:05;7.60;;;1.80;;
68940;SDS011;55982;51.476;7.552;2022-07-10T00:07:31;6.28;;;1.63;;
68940;SDS011;55982;51.476;7.552;2022-07-10T00:09:57;8.02;;;2.17;;
68940;SDS011;55982;51.476;7.552;2022-07-10T00:12:23;6.68;;;2.00;;
68940;SDS011;55982;51.476;7.552;2022-07-10T00:14:48;10.48;;;1.98;;
68940;SDS011;55982;51.476;7.552;2022-07-10T00:17:13;7.50;;;1.98;;
68940;SDS011;55982;51.476;7.552;2022-07-10T00:19:39;9.30;;;1.83;;
68940;SDS011;55982;51.476;7.552;2022-07-10T00:22:04;7.03;;;1.85;;
68940;SDS011;55982;51.476;7.552;2022-07-10T00:24:29;9.35;;;2.13;;
68940;SDS011;55982;51.476;7.552;2022-07-10T00:26:55;6.45;;;1.70;;
68940;SDS011;55982;51.476;7.552;2022-07-10T00:29:20;10.80;;;2.83;;
68940;SDS011;55982;51.476;7.552;2022-07-10T00:31:46;6.50;;;1.73;;
68940;SDS011;55982;51.476;7.552;2022-07-10T00:34:11;5.65;;;1.45;;
68940;SDS011;55982;51.476;7.552;2022-07-10T00:36:37;6.97;;;1.70;;
68940;SDS011;55982;51.476;7.552;2022-07-10T00:39:03;5.65;;;1.60;;
68940;SDS011;55982;51.476;7.552;2022-07-10T00:41:28;4.82;;;1.45;;
68940;SDS011;55982;51.476;7.552;2022-07-10T00:43:57;7.60;;;1.70;;
68940;SDS011;55982;51.476;7.552;2022-07-10T00:46:25;9.43;;;1.70;;
68940;SDS011;55982;51.476;7.552;2022-07-10T00:48:51;11.65;;;1.45;;
68940;SDS011;55982;51.476;7.552;2022-07-10T00:51:18;8.45;;;1.30;;
68940;SDS011;55982;51.476;7.552;2022-07-10T00:53:45;9.18;;;1.50;;
68940;SDS011;55982;51.476;7.552;2022-07-10T00:56:13;7.85;;;1.58;;
68940;SDS011;55982;51.476;7.552;2022-07-10T00:58:42;7.20;;;1.50;;
68940;SDS011;55982;51.476;7.552;2022-07-10T01:01:08;8.32;;;1.77;;
68940;SDS011;55982;51.476;7.552;2022-07-10T01:03:34;6.90;;;1.65;;
68940;SDS011;55982;51.476;7.552;2022-07-10T01:05:59;12.43;;;1.75;;
68940;SDS011;55982;51.476;7.552;2022-07-10T01:08:25;4.57;;;1.60;;
68940;SDS011;55982;51.476;7.552;2022-07-10T01:10:52;7.95;;;1.52;;
68940;SDS011;55982;51.476;7.552;2022-07-10T01:13:17;3.65;;;1.40;;
68940;SDS011;55982;51.476;7.552;2022-07-10T01:15:43;6.38;;;1.45;;
68940;SDS011;55982;51.476;7.552;2022-07-10T01:18:09;6.45;;;1.55;;
68940;SDS011;55982;51.476;7.552;2022-07-10T01:20:35;5.60;;;1.50;;
68940;SDS011;55982;51.476;7.552;2022-07-10T01:23:00;7.03;;;1.95;;
68940;SDS011;55982;51.476;7.552;2022-07-10T01:25:27;4.68;;;1.40;;
68940;SDS011;55982;51.476;7.552;2022-07-10T01:27:52;6.28;;;1.63;;
68940;SDS011;55982;51.476;7.552;2022-07-10T01:30:17;8.55;;;2.03;;
68940;SDS011;55982;51.476;7.552;2022-07-10T01:32:44;11.32;;;2.22;;
68940;SDS011;55982;51.476;7.552;2022-07-10T01:35:10;6.35;;;1.67;;
68940;SDS011;55982;51.476;7.552;2022-07-10T01:37:35;7.38;;;1.67;;
68940;SDS011;55982;51.476;7.552;2022-07-10T01:40:01;9.50;;;2.05;;
68940;SDS011;55982;51.476;7.552;2022-07-10T01:42:27;5.32;;;1.48;;
68940;SDS011;55982;51.476;7.552;2022-07-10T01:44:52;5.97;;;1.65;;
68940;SDS011;55982;51.476;7.552;2022-07-10T01:47:18;6.00;;;1.60;;
68940;SDS011;55982;51.476;7.552;2022-07-10T01:49:44;7.40;;;1.55;;
68940;SDS011;55982;51.476;7.552;2022-07-10T01:52:09;5.07;;;1.70;;
68940;SDS011;55982;51.476;7.552;2022-07-10T01:54:35;7.50;;;1.83;;
68940;SDS011;55982;51.476;7.552;2022-07-10T01:57:00;8.57;;;1.83;;
68940;SDS011;55982;51.476;7.552;2022-07-10T01:59:26;12.00;;;2.00;;
68940;SDS011;55982;51.476;7.552;2022-07-10T02:01:51;5.15;;;1.65;;
68940;SDS011;55982;51.476;7.552;2022-07-10T02:04:16;7.47;;;1.48;;
68940;SDS011;55982;51.476;7.552;2022-07-10T02:07:00;10.52;;;2.58;;
68940;SDS011;55982;51.476;7.552;2022-07-10T02:09:26;5.70;;;1.27;;
68940;SDS011;55982;51.476;7.552;2022-07-10T02:11:51;8.55;;;1.50;;
68940;SDS011;55982;51.476;7.552;2022-07-10T02:14:17;4.20;;;1.50;;
68940;SDS011;55982;51.476;7.552;2022-07-10T02:16:42;10.05;;;2.03;;
68940;SDS011;55982;51.476;7.552;2022-07-10T02:19:09;6.97;;;1.40;;
68940;SDS011;55982;51.476;7.552;2022-07-10T02:21:35;5.22;;;1.45;;
68940;SDS011;55982;51.476;7.552;2022-07-10T02:24:00;5.93;;;1.40;;
68940;SDS011;55982;51.476;7.552;2022-07-10T02:26:25;6.40;;;1.80;;
68940;SDS011;55982;51.476;7.552;2022-07-10T02:28:51;10.68;;;1.60;;
68940;SDS011;55982;51.476;7.552;2022-07-10T02:31:16;6.10;;;1.48;;
68940;SDS011;55982;51.476;7.552;2022-07-10T02:33:42;4.90;;;1.25;;
68940;SDS011;55982;51.476;7.552;2022-07-10T02:36:07;8.45;;;1.85;;
68940;SDS011;55982;51.476;7.552;2022-07-10T02:38:32;8.70;;;1.73;;
68940;SDS011;55982;51.476;7.552;2022-07-10T02:40:58;7.35;;;1.75;;
68940;SDS011;55982;51.476;7.552;2022-07-10T02:43:23;8.30;;;2.03;;
68940;SDS011;55982;51.476;7.552;2022-07-10T02:45:49;7.35;;;1.50;;
68940;SDS011;55982;51.476;7.552;2022-07-10T02:48:14;9.25;;;1.70;;
68940;SDS011;55982;51.476;7.552;2022-07-10T02:50:41;9.27;;;2.55;;
68940;SDS011;55982;51.476;7.552;2022-07-10T02:53:06;8.80;;;1.98;;
68940;SDS011;55982;51.476;7.552;2022-07-10T02:55:32;6.85;;;1.70;;
68940;SDS011;55982;51.476;7.552;2022-07-10T02:57:58;6.80;;;1.60;;
68940;SDS011;55982;51.476;7.552;2022-07-10T03:00:24;5.93;;;1.35;;
68940;SDS011;55982;51.476;7.552;2022-07-10T03:02:51;12.65;;;1.92;;
68940;SDS011;55982;51.476;7.552;2022-07-10T03:05:17;8.48;;;1.50;;
68940;SDS011;55982;51.476;7.552;2022-07-10T03:07:42;7.85;;;1.85;;
68940;SDS011;55982;51.476;7.552;2022-07-10T03:10:08;9.60;;;1.63;;
68940;SDS011;55982;51.476;7.552;2022-07-10T03:12:34;8.95;;;1.73;;
68940;SDS011;55982;51.476;7.552;2022-07-10T03:14:59;5.60;;;1.70;;
68940;SDS011;55982;51.476;7.552;2022-07-10T03:17:25;8.13;;;2.22;;
68940;SDS011;55982;51.476;7.552;2022-07-10T03:19:50;8.93;;;2.08;;
68940;SDS011;55982;51.476;7.552;2022-07-10T03:22:16;8.20;;;1.75;;
68940;SDS011;55982;51.476;7.552;2022-07-10T03:24:41;8.82;;;2.13;;
68940;SDS011;55982;51.476;7.552;2022-07-10T03:27:08;6.53;;;2.00;;
68940;SDS011;55982;51.476;7.552;2022-07-10T03:29:33;6.45;;;1.95;;
68940;SDS011;55982;51.476;7.552;2022-07-10T03:31:59;8.05;;;1.80;;
68940;SDS011;55982;51.476;7.552;2022-07-10T03:34:25;6.22;;;1.58;;
68940;SDS011;55982;51.476;7.552;2022-07-10T03:36:50;6.50;;;1.83;;
68940;SDS011;55982;51.476;7.552;2022-07-10T03:39:16;6.22;;;1.65;;
68940;SDS011;55982;51.476;7.552;2022-07-10T03:41:42;9.48;;;2.00;;
68940;SDS011;55982;51.476;7.552;2022-07-10T03:44:07;7.75;;;1.55;;
68940;SDS011;55982;51.476;7.552;2022-07-10T03:46:32;5.90;;;1.83;;
68940;SDS011;55982;51.476;7.552;2022-07-10T03:48:58;7.75;;;2.30;;
68940;SDS011;55982;51.476;7.552;2022-07-10T03:51:23;3.72;;;1.42;;
68940;SDS011;55982;51.476;7.552;2022-07-10T03:53:49;8.13;;;1.75;;
68940;SDS011;55982;51.476;7.552;2022-07-10T03:56:14;9.05;;;1.75;;
68940;SDS011;55982;51.476;7.552;2022-07-10T03:58:59;8.52;;;1.80;;
68940;SDS011;55982;51.476;7.552;2022-07-10T04:01:25;10.30;;;1.77;;
68940;SDS011;55982;51.476;7.552;2022-07-10T04:03:50;10.32;;;1.90;;
68940;SDS011;55982;51.476;7.552;2022-07-10T04:06:15;9.90;;;1.88;;
68940;SDS011;55982;51.476;7.552;2022-07-10T04:08:41;7.60;;;1.95;;
68940;SDS011;55982;51.476;7.552;2022-07-10T04:11:06;7.00;;;1.80;;
68940;SDS011;55982;51.476;7.552;2022-07-10T04:13:31;11.13;;;2.17;;
68940;SDS011;55982;51.476;7.552;2022-07-10T04:15:57;8.82;;;1.70;;
68940;SDS011;55982;51.476;7.552;2022-07-10T04:18:22;12.63;;;1.55;;
68940;SDS011;55982;51.476;7.552;2022-07-10T04:20:47;8.07;;;2.05;;
68940;SDS011;55982;51.476;7.552;2022-07-10T04:23:13;5.40;;;1.70;;
68940;SDS011;55982;51.476;7.552;2022-07-10T04:25:38;6.30;;;1.98;;
68940;SDS011;55982;51.476;7.552;2022-07-10T04:28:03;10.45;;;1.85;;
68940;SDS011;55982;51.476;7.552;2022-07-10T04:30:29;7.70;;;1.90;;
68940;SDS011;55982;51.476;7.552;2022-07-10T04:32:54;4.50;;;1.60;;
68940;SDS011;55982;51.476;7.552;2022-07-10T04:35:20;9.50;;;1.90;;
68940;SDS011;55982;51.476;7.552;2022-07-10T04:37:45;7.22;;;2.40;;
68940;SDS011;55982;51.476;7.552;2022-07-10T04:40:11;8.80;;;2.40;;
68940;SDS011;55982;51.476;7.552;2022-07-10T04:42:37;8.38;;;1.92;;
68940;SDS011;55982;51.476;7.552;2022-07-10T04:45:02;8.30;;;1.90;;
68940;SDS011;55982;51.476;7.552;2022-07-10T04:47:28;9.27;;;2.50;;
68940;SDS011;55982;51.476;7.552;2022-07-10T04:49:53;11.95;;;2.30;;
68940;SDS011;55982;51.476;7.552;2022-07-10T04:52:18;9.68;;;2.00;;
68940;SDS011;55982;51.476;7.552;2022-07-10T04:54:44;7.63;;;1.92;;
68940;SDS011;55982;51.476;7.552;2022-07-10T04:57:09;7.40;;;2.17;;
68940;SDS011;55982;51.476;7.552;2022-07-10T04:59:34;12.95;;;2.20;;
68940;SDS011;55982;51.476;7.552;2022-07-10T05:02:00;8.05;;;1.77;;
68940;SDS011;55982;51.476;7.552;2022-07-10T05:04:25;9.18;;;1.83;;
68940;SDS011;55982;51.476;7.552;2022-07-10T05:06:50;7.72;;;1.60;;
68940;SDS011;55982;51.476;7.552;2022-07-10T05:09:16;7.68;;;2.72;;
68940;SDS011;55982;51.476;7.552;2022-07-10T05:11:44;13.15;;;1.80;;
68940;SDS011;55982;51.476;7.552;2022-07-10T05:14:10;7.93;;;1.90;;
68940;SDS011;55982;51.476;7.552;2022-07-10T05:16:35;13.02;;;2.03;;
68940;SDS011;55982;51.476;7.552;2022-07-10T05:19:01;8.95;;;2.13;;
68940;SDS011;55982;51.476;7.552;2022-07-10T05:21:26;5.82;;;1.55;;
68940;SDS011;55982;51.476;7.552;2022-07-10T05:23:52;10.07;;;1.83;;
68940;SDS011;55982;51.476;7.552;2022-07-10T05:26:17;7.00;;;2.10;;
68940;SDS011;55982;51.476;7.552;2022-07-10T05:28:43;8.85;;;2.00;;
68940;SDS011;55982;51.476;7.552;2022-07-10T05:31:08;9.77;;;1.60;;
68940;SDS011;55982;51.476;7.552;2022-07-10T05:33:34;9.25;;;1.90;;
68940;SDS011;55982;51.476;7.552;2022-07-10T05:35:59;5.32;;;1.65;;
68940;SDS011;55982;51.476;7.552;2022-07-10T05:38:24;6.78;;;1.77;;
68940;SDS011;55982;51.476;7.552;2022-07-10T05:40:50;6.18;;;1.83;;
68940;SDS011;55982;51.476;7.552;2022-07-10T05:43:18;12.32;;;1.80;;
68940;SDS011;55982;51.476;7.552;2022-07-10T05:45:43;10.40;;;2.47;;
68940;SDS011;55982;51.476;7.552;2022-07-10T05:48:08;10.52;;;1.60;;
68940;SDS011;55982;51.476;7.552;2022-07-10T05:50:35;8.13;;;1.75;;
68940;SDS011;55982;51.476;7.552;2022-07-10T05:53:00;6.20;;;1.83;;
68940;SDS011;55982;51.476;7.552;2022-07-10T05:55:26;11.35;;;2.13;;
68940;SDS011;55982;51.476;7.552;2022-07-10T05:57:51;9.65;;;1.90;;
68940;SDS011;55982;51.476;7.552;2022-07-10T06:00:17;5.22;;;1.60;;
68940;SDS011;55982;51.476;7.552;2022-07-10T06:02:43;10.90;;;1.88;;
68940;SDS011;55982;51.476;7.552;2022-07-10T06:05:08;7.35;;;1.65;;
68940;SDS011;55982;51.476;7.552;2022-07-10T06:07:34;11.70;;;1.88;;
68940;SDS011;55982;51.476;7.552;2022-07-10T06:10:00;9.10;;;1.98;;
68940;SDS011;55982;51.476;7.552;2022-07-10T06:12:26;6.05;;;1.60;;
68940;SDS011;55982;51.476;7.552;2022-07-10T06:14:51;10.88;;;1.65;;
68940;SDS011;55982;51.476;7.552;2022-07-10T06:17:16;9.00;;;1.67;;
68940;SDS011;55982;51.476;7.552;2022-07-10T06:19:42;7.85;;;1.63;;
68940;SDS011;55982;51.476;7.552;2022-07-10T06:22:07;12.38;;;1.95;;
68940;SDS011;55982;51.476;7.552;2022-07-10T06:24:51;6.93;;;1.30;;
68940;SDS011;55982;51.476;7.552;2022-07-10T06:27:16;8.23;;;1.50;;
68940;SDS011;55982;51.476;7.552;2022-07-10T06:29:42;7.25;;;1.50;;
68940;SDS011;55982;51.476;7.552;2022-07-10T06:32:07;7.35;;;1.50;;
68940;SDS011;55982;51.476;7.552;2022-07-10T06:34:33;6.53;;;1.15;;
68940;SDS011;55982;51.476;7.552;2022-07-10T06:36:58;10.48;;;1.83;;
68940;SDS011;55982;51.476;7.552;2022-07-10T06:39:24;3.60;;;1.20;;
68940;SDS011;55982;51.476;7.552;2022-07-10T06:41:49;3.95;;;1.23;;
68940;SDS011;55982;51.476;7.552;2022-07-10T06:44:14;6.05;;;1.70;;
68940;SDS011;55982;51.476;7.552;2022-07-10T06:46:40;10.63;;;1.50;;
68940;SDS011;55982;51.476;7.552;2022-07-10T06:49:06;5.82;;;0.93;;
68940;SDS011;55982;51.476;7.552;2022-07-10T06:51:31;6.35;;;1.30;;
68940;SDS011;55982;51.476;7.552;2022-07-10T06:53:57;10.25;;;1.70;;
68940;SDS011;55982;51.476;7.552;2022-07-10T06:56:23;7.97;;;1.20;;
68940;SDS011;55982;51.476;7.552;2022-07-10T06:58:48;5.03;;;1.40;;
68940;SDS011;55982;51.476;7.552;2022-07-10T07:01:14;3.88;;;1.08;;
68940;SDS011;55982;51.476;7.552;2022-07-10T07:03:39;7.13;;;1.45;;
68940;SDS011;55982;51.476;7.552;2022-07-10T07:06:04;11.68;;;1.70;;
68940;SDS011;55982;51.476;7.552;2022-07-10T07:08:30;6.22;;;1.42;;
68940;SDS011;55982;51.476;7.552;2022-07-10T07:10:56;6.13;;;1.35;;
68940;SDS011;55982;51.476;7.552;2022-07-10T07:13:21;6.65;;;1.40;;
68940;SDS011;55982;51.476;7.552;2022-07-10T07:15:46;5.85;;;1.38;;
68940;SDS011;55982;51.476;7.552;2022-07-10T07:18:22;6.60;;;1.45;;
68940;SDS011;55982;51.476;7.552;2022-07-10T07:20:56;12.05;;;1.20;;
68940;SDS011;55982;51.476;7.552;2022-07-10T07:23:40;9.27;;;1.58;;
68940;SDS011;55982;51.476;7.552;2022-07-10T07:26:05;8.00;;;1.40;;
68940;SDS011;55982;51.476;7.552;2022-07-10T07:28:31;3.22;;;1.25;;
68940;SDS011;55982;51.476;7.552;2022-07-10T07:30:56;8.05;;;1.40;;
68940;SDS011;55982;51.476;7.552;2022-07-10T07:33:24;4.50;;;1.20;;
68940;SDS011;55982;51.476;7.552;2022-07-10T07:35:49;5.50;;;1.20;;
68940;SDS011;55982;51.476;7.552;2022-07-10T07:38:15;6.13;;;1.63;;
68940;SDS011;55982;51.476;7.552;2022-07-10T07:40:41;8.10;;;1.35;;
68940;SDS011;55982;51.476;7.552;2022-07-10T07:43:07;8.00;;;1.67;;
68940;SDS011;55982;51.476;7.552;2022-07-10T07:45:32;5.68;;;1.27;;
68940;SDS011;55982;51.476;7.552;2022-07-10T07:47:58;8.18;;;1.45;;
68940;SDS011;55982;51.476;7.552;2022-07-10T07:50:25;5.07;;;1.50;;
68940;SDS011;55982;51.476;7.552;2022-07-10T07:52:56;7.13;;;1.67;;
68940;SDS011;55982;51.476;7.552;2022-07-10T07:55:22;6.72;;;1.30;;
68940;SDS011;55982;51.476;7.552;2022-07-10T07:57:51;10.73;;;1.88;;
68940;SDS011;55982;51.476;7.552;2022-07-10T08:00:18;6.53;;;1.50;;
68940;SDS011;55982;51.476;7.552;2022-07-10T08:02:44;14.70;;;2.03;;
68940;SDS011;55982;51.476;7.552;2022-07-10T08:05:10;7.65;;;1.60;;
68940;SDS011;55982;51.476;7.552;2022-07-10T08:07:46;10.00;;;2.50;;
68940;SDS011;55982;51.476;7.552;2022-07-10T08:10:16;8.43;;;1.45;;
68940;SDS011;55982;51.476;7.552;2022-07-10T08:12:44;6.90;;;1.70;;
68940;SDS011;55982;51.476;7.552;2022-07-10T08:15:11;9.48;;;1.38;;
68940;SDS011;55982;51.476;7.552;2022-07-10T08:17:38;8.35;;;1.52;;
68940;SDS011;55982;51.476;7.552;2022-07-10T08:20:05;9.98;;;1.70;;
68940;SDS011;55982;51.476;7.552;2022-07-10T08:22:32;8.32;;;2.13;;
68940;SDS011;55982;51.476;7.552;2022-07-10T08:24:58;9.40;;;1.73;;
68940;SDS011;55982;51.476;7.552;2022-07-10T08:27:23;16.30;;;1.85;;
68940;SDS011;55982;51.476;7.552;2022-07-10T08:29:49;6.00;;;1.42;;
68940;SDS011;55982;51.476;7.552;2022-07-10T08:32:14;5.18;;;1.20;;
68940;SDS011;55982;51.476;7.552;2022-07-10T08:34:40;13.02;;;1.70;;
68940;SDS011;55982;51.476;7.552;2022-07-10T08:37:05;8.10;;;1.63;;
68940;SDS011;55982;51.476;7.552;2022-07-10T08:39:31;9.48;;;1.52;;
68940;SDS011;55982;51.476;7.552;2022-07-10T08:41:57;4.05;;;1.20;;
68940;SDS011;55982;51.476;7.552;2022-07-10T08:44:23;5.25;;;1.58;;
68940;SDS011;55982;51.476;7.552;2022-07-10T08:46:48;8.02;;;1.23;;
68940;SDS011;55982;51.476;7.552;2022-07-10T08:49:14;5.45;;;1.25;;
68940;SDS011;55982;51.476;7.552;2022-07-10T08:51:47;7.75;;;1.73;;
68940;SDS011;55982;51.476;7.552;2022-07-10T08:54:20;4.53;;;1.10;;
68940;SDS011;55982;51.476;7.552;2022-07-10T08:56:47;5.93;;;1.35;;
68940;SDS011;55982;51.476;7.552;2022-07-10T08:59:12;11.27;;;2.03;;
68940;SDS011;55982;51.476;7.552;2022-07-10T09:01:39;9.38;;;1.60;;
68940;SDS011;55982;51.476;7.552;2022-07-10T09:04:04;9.15;;;1.60;;
68940;SDS011;55982;51.476;7.552;2022-07-10T09:06:29;10.10;;;1.73;;
68940;SDS011;55982;51.476;7.552;2022-07-10T09:11:24;9.82;;;2.00;;
68940;SDS011;55982;51.476;7.552;2022-07-10T09:13:54;12.77;;;1.67;;
68940;SDS011;55982;51.476;7.552;2022-07-10T09:16:33;10.70;;;2.10;;
68940;SDS011;55982;51.476;7.552;2022-07-10T09:19:17;11.98;;;1.85;;
68940;SDS011;55982;51.476;7.552;2022-07-10T09:24:17;7.43;;;2.83;;
68940;SDS011;55982;51.476;7.552;2022-07-10T09:26:47;14.15;;;3.00;;
68940;SDS011;55982;51.476;7.552;2022-07-10T09:29:18;10.07;;;2.88;;
68940;SDS011;55982;51.476;7.552;2022-07-10T09:31:57;7.57;;;3.03;;
68940;SDS011;55982;51.476;7.552;2022-07-10T09:34:36;12.32;;;3.30;;
68940;SDS011;55982;51.476;7.552;2022-07-10T09:39:53;7.53;;;3.10;;
68940;SDS011;55982;51.476;7.552;2022-07-10T09:47:43;11.18;;;3.20;;
68940;SDS011;55982;51.476;7.552;2022-07-10T09:50:19;8.60;;;2.85;;
68940;SDS011;55982;51.476;7.552;2022-07-10T09:52:45;5.07;;;2.83;;
68940;SDS011;55982;51.476;7.552;2022-07-10T09:55:12;4.28;;;2.00;;
68940;SDS011;55982;51.476;7.552;2022-07-10T09:57:39;7.35;;;2.42;;
68940;SDS011;55982;51.476;7.552;2022-07-10T10:00:09;5.57;;;2.25;;
68940;SDS011;55982;51.476;7.552;2022-07-10T10:02:35;5.72;;;2.42;;
68940;SDS011;55982;51.476;7.552;2022-07-10T10:05:02;11.45;;;2.50;;
68940;SDS011;55982;51.476;7.552;2022-07-10T10:07:28;9.10;;;2.17;;
68940;SDS011;55982;51.476;7.552;2022-07-10T10:09:53;8.32;;;2.30;;
68940;SDS011;55982;51.476;7.552;2022-07-10T10:12:31;7.50;;;2.45;;
68940;SDS011;55982;51.476;7.552;2022-07-10T10:15:00;6.85;;;2.38;;
68940;SDS011;55982;51.476;7.552;2022-07-10T10:17:26;3.80;;;1.95;;
68940;SDS011;55982;51.476;7.552;2022-07-10T10:19:53;4.18;;;2.05;;
68940;SDS011;55982;51.476;7.552;2022-07-10T10:22:42;6.63;;;1.90;;
68940;SDS011;55982;51.476;7.552;2022-07-10T10:25:09;4.82;;;2.05;;
68940;SDS011;55982;51.476;7.552;2022-07-10T10:27:35;6.55;;;2.10;;
68940;SDS011;55982;51.476;7.552;2022-07-10T10:30:01;7.28;;;2.50;;
68940;SDS011;55982;51.476;7.552;2022-07-10T10:32:27;9.15;;;2.30;;
68940;SDS011;55982;51.476;7.552;2022-07-10T10:34:53;7.40;;;2.50;;
68940;SDS011;55982;51.476;7.552;2022-07-10T10:37:38;5.57;;;2.58;;
68940;SDS011;55982;51.476;7.552;2022-07-10T10:40:06;8.98;;;2.70;;
68940;SDS011;55982;51.476;7.552;2022-07-10T10:42:37;5.95;;;2.20;;
68940;SDS011;55982;51.476;7.552;2022-07-10T10:50:37;9.90;;;2.03;;
68940;SDS011;55982;51.476;7.552;2022-07-10T10:53:03;7.28;;;2.58;;
68940;SDS011;55982;51.476;7.552;2022-07-10T10:55:30;5.32;;;3.00;;
68940;SDS011;55982;51.476;7.552;2022-07-10T10:58:11;4.68;;;2.63;;
68940;SDS011;55982;51.476;7.552;2022-07-10T11:00:38;7.32;;;2.70;;
68940;SDS011;55982;51.476;7.552;2022-07-10T11:03:12;4.57;;;3.13;;
68940;SDS011;55982;51.476;7.552;2022-07-10T11:05:40;7.25;;;3.42;;
68940;SDS011;55982;51.476;7.552;2022-07-10T11:08:09;6.10;;;4.20;;
68940;SDS011;55982;51.476;7.552;2022-07-10T11:10:36;8.65;;;4.53;;
68940;SDS011;55982;51.476;7.552;2022-07-10T11:13:03;7.28;;;4.72;;
68940;SDS011;55982;51.476;7.552;2022-07-10T11:15:33;5.65;;;5.03;;
68940;SDS011;55982;51.476;7.552;2022-07-10T11:18:11;8.57;;;5.25;;
68940;SDS011;55982;51.476;7.552;2022-07-10T11:20:39;7.38;;;5.55;;
68940;SDS011;55982;51.476;7.552;2022-07-10T11:26:24;7.22;;;5.80;;
68940;SDS011;55982;51.476;7.552;2022-07-10T11:29:03;10.38;;;6.38;;
68940;SDS011;55982;51.476;7.552;2022-07-10T11:31:33;8.40;;;5.82;;
68940;SDS011;55982;51.476;7.552;2022-07-10T11:34:03;7.60;;;5.20;;
68940;SDS011;55982;51.476;7.552;2022-07-10T11:36:29;7.25;;;5.35;;
68940;SDS011;55982;51.476;7.552;2022-07-10T11:39:00;8.02;;;5.57;;
68940;SDS011;55982;51.476;7.552;2022-07-10T11:41:27;6.68;;;5.07;;
68940;SDS011;55982;51.476;7.552;2022-07-10T11:43:58;6.22;;;5.07;;
68940;SDS011;55982;51.476;7.552;2022-07-10T11:46:25;7.72;;;4.72;;
68940;SDS011;55982;51.476;7.552;2022-07-10T11:48:53;37.05;;;24.38;;
68940;SDS011;55982;51.476;7.552;2022-07-10T11:51:24;5.97;;;4.38;;
68940;SDS011;55982;51.476;7.552;2022-07-10T11:53:54;6.25;;;5.20;;
68940;SDS011;55982;51.476;7.552;2022-07-10T11:56:27;11.30;;;6.90;;
68940;SDS011;55982;51.476;7.552;2022-07-10T11:58:59;11.00;;;7.45;;
68940;SDS011;55982;51.476;7.552;2022-07-10T12:01:25;10.73;;;7.57;;
68940;SDS011;55982;51.476;7.552;2022-07-10T12:04:03;11.82;;;8.73;;
68940;SDS011;55982;51.476;7.552;2022-07-10T12:06:31;11.30;;;9.13;;
68940;SDS011;55982;51.476;7.552;2022-07-10T12:09:02;10.57;;;9.45;;
68940;SDS011;55982;51.476;7.552;2022-07-10T12:11:31;10.95;;;9.45;;
68940;SDS011;55982;51.476;7.552;2022-07-10T12:14:13;18.50;;;9.98;;
68940;SDS011;55982;51.476;7.552;2022-07-10T12:16:44;12.13;;;9.82;;
68940;SDS011;55982;51.476;7.552;2022-07-10T12:19:14;17.95;;;10.10;;
68940;SDS011;55982;51.476;7.552;2022-07-10T12:21:44;10.02;;;8.95;;
68940;SDS011;55982;51.476;7.552;2022-07-10T12:24:11;10.80;;;9.40;;
68940;SDS011;55982;51.476;7.552;2022-07-10T12:26:38;11.82;;;9.68;;
68940;SDS011;55982;51.476;7.552;2022-07-10T12:29:06;15.13;;;10.23;;
68940;SDS011;55982;51.476;7.552;2022-07-10T12:31:49;13.57;;;9.88;;
68940;SDS011;55982;51.476;7.552;2022-07-10T12:34:16;11.13;;;8.90;;
68940;SDS011;55982;51.476;7.552;2022-07-10T12:36:46;11.85;;;10.52;;
68940;SDS011;55982;51.476;7.552;2022-07-10T12:41:56;14.63;;;12.30;;
68940;SDS011;55982;51.476;7.552;2022-07-10T12:44:30;16.15;;;13.05;;
68940;SDS011;55982;51.476;7.552;2022-07-10T12:49:50;14.65;;;12.68;;
68940;SDS011;55982;51.476;7.552;2022-07-10T12:52:29;15.55;;;13.25;;
68940;SDS011;55982;51.476;7.552;2022-07-10T13:00:30;11.50;;;10.07;;
68940;SDS011;55982;51.476;7.552;2022-07-10T13:05:29;9.10;;;7.65;;
68940;SDS011;55982;51.476;7.552;2022-07-10T13:08:06;6.25;;;5.65;;
68940;SDS011;55982;51.476;7.552;2022-07-10T13:10:51;6.70;;;5.38;;
68940;SDS011;55982;51.476;7.552;2022-07-10T13:13:17;4.70;;;4.30;;
68940;SDS011;55982;51.476;7.552;2022-07-10T13:15:43;4.68;;;4.28;;
68940;SDS011;55982;51.476;7.552;2022-07-10T13:18:22;4.07;;;3.30;;
68940;SDS011;55982;51.476;7.552;2022-07-10T13:20:50;3.35;;;3.05;;
68940;SDS011;55982;51.476;7.552;2022-07-10T13:23:17;2.53;;;1.70;;
68940;SDS011;55982;51.476;7.552;2022-07-10T13:25:48;2.03;;;1.85;;
68940;SDS011;55982;51.476;7.552;2022-07-10T13:28:14;1.60;;;1.50;;
68940;SDS011;55982;51.476;7.552;2022-07-10T13:30:41;1.70;;;1.60;;
68940;SDS011;55982;51.476;7.552;2022-07-10T13:33:06;1.70;;;1.60;;
68940;SDS011;55982;51.476;7.552;2022-07-10T13:35:32;2.00;;;1.80;;
68940;SDS011;55982;51.476;7.552;2022-07-10T13:37:58;2.58;;;1.65;;
68940;SDS011;55982;51.476;7.552;2022-07-10T13:40:32;3.13;;;1.55;;
68940;SDS011;55982;51.476;7.552;2022-07-10T13:42:59;1.35;;;1.25;;
68940;SDS011;55982;51.476;7.552;2022-07-10T13:45:25;0.90;;;0.90;;
68940;SDS011;55982;51.476;7.552;2022-07-10T13:47:55;1.45;;;1.02;;
68940;SDS011;55982;51.476;7.552;2022-07-10T13:50:21;4.18;;;0.90;;
68940;SDS011;55982;51.476;7.552;2022-07-10T13:52:48;1.27;;;0.80;;
68940;SDS011;55982;51.476;7.552;2022-07-10T13:55:13;4.30;;;1.08;;
68940;SDS011;55982;51.476;7.552;2022-07-10T13:57:39;0.82;;;0.70;;
68940;SDS011;55982;51.476;7.552;2022-07-10T14:00:05;1.27;;;1.02;;
68940;SDS011;55982;51.476;7.552;2022-07-10T14:02:31;1.52;;;1.00;;
68940;SDS011;55982;51.476;7.552;2022-07-10T14:04:56;2.33;;;1.30;;
68940;SDS011;55982;51.476;7.552;2022-07-10T14:07:21;3.42;;;1.40;;
68940;SDS011;55982;51.476;7.552;2022-07-10T14:09:47;1.65;;;1.38;;
68940;SDS011;55982;51.476;7.552;2022-07-10T14:12:12;10.13;;;1.60;;
68940;SDS011;55982;51.476;7.552;2022-07-10T14:14:38;2.90;;;1.33;;
68940;SDS011;55982;51.476;7.552;2022-07-10T14:17:03;1.38;;;1.27;;
68940;SDS011;55982;51.476;7.552;2022-07-10T14:19:29;2.58;;;1.60;;
68940;SDS011;55982;51.476;7.552;2022-07-10T14:21:54;3.90;;;1.50;;
68940;SDS011;55982;51.476;7.552;2022-07-10T14:24:19;1.30;;;1.20;;
68940;SDS011;55982;51.476;7.552;2022-07-10T14:26:45;3.55;;;2.10;;
68940;SDS011;55982;51.476;7.552;2022-07-10T14:29:11;3.42;;;2.05;;
68940;SDS011;55982;51.476;7.552;2022-07-10T14:31:38;3.65;;;2.22;;
68940;SDS011;55982;51.476;7.552;2022-07-10T14:34:04;2.58;;;2.05;;
68940;SDS011;55982;51.476;7.552;2022-07-10T14:36:30;3.83;;;2.20;;
68940;SDS011;55982;51.476;7.552;2022-07-10T14:38:56;2.92;;;1.70;;
68940;SDS011;55982;51.476;7.552;2022-07-10T14:41:22;2.60;;;2.13;;
68940;SDS011;55982;51.476;7.552;2022-07-10T14:43:49;3.45;;;1.70;;
68940;SDS011;55982;51.476;7.552;2022-07-10T14:46:15;4.40;;;2.00;;
68940;SDS011;55982;51.476;7.552;2022-07-10T14:48:40;1.20;;;1.10;;
68940;SDS011;55982;51.476;7.552;2022-07-10T14:51:06;3.20;;;1.48;;
68940;SDS011;55982;51.476;7.552;2022-07-10T14:53:32;4.47;;;1.23;;
68940;SDS011;55982;51.476;7.552;2022-07-10T14:56:01;2.10;;;1.48;;
68940;SDS011;55982;51.476;7.552;2022-07-10T14:58:29;2.83;;;1.40;;
68940;SDS011;55982;51.476;7.552;2022-07-10T15:00:55;2.70;;;1.20;;
68940;SDS011;55982;51.476;7.552;2022-07-10T15:03:20;1.58;;;1.25;;
68940;SDS011;55982;51.476;7.552;2022-07-10T15:05:46;3.80;;;1.60;;
68940;SDS011;55982;51.476;7.552;2022-07-10T15:08:11;2.03;;;1.60;;
68940;SDS011;55982;51.476;7.552;2022-07-10T15:10:37;2.40;;;1.80;;
68940;SDS011;55982;51.476;7.552;2022-07-10T15:13:02;5.05;;;2.10;;
68940;SDS011;55982;51.476;7.552;2022-07-10T15:15:31;4.32;;;1.73;;
68940;SDS011;55982;51.476;7.552;2022-07-10T15:17:57;3.45;;;2.60;;
68940;SDS011;55982;51.476;7.552;2022-07-10T15:20:22;6.55;;;3.03;;